Time;durP1;ratioP1;P1;durP2;ratioP2;P2;SDS_P1;SDS_P2;PMS_P1;PMS_P2;Temp;Humidity;BMP_temperature;BMP_pressure;BME280_temperature;BME280_humidity;BME280_pressure;Samples;Min_cycle;Max_cycle;Signal;HPM_P1;HPM_P2
2021/09/15 00:00:07;;;;;;;7.47;3.77;;;;;;;9.51;100.00;100440.97;1821892;78;21235;-77
2021/09/15 00:02:39;;;;;;;7.75;4.22;;;;;;;9.44;100.00;100436.33;1821939;78;21027;-77
2021/09/15 00:05:07;;;;;;;7.72;4.15;;;;;;;9.40;100.00;100442.11;1821996;78;21513;-77
2021/09/15 00:07:34;;;;;;;6.03;3.42;;;;;;;9.38;100.00;100440.43;1822122;78;21080;-76
2021/09/15 00:10:00;;;;;;;5.42;3.25;;;;;;;9.36;100.00;100441.80;1821862;78;21084;-78
2021/09/15 00:12:28;;;;;;;9.45;4.28;;;;;;;9.36;100.00;100445.75;1821692;78;21064;-76
2021/09/15 00:14:56;;;;;;;9.20;3.98;;;;;;;9.34;100.00;100444.92;1821481;78;21025;-77
2021/09/15 00:17:23;;;;;;;6.17;3.83;;;;;;;9.30;100.00;100448.53;1821656;78;21129;-79
2021/09/15 00:19:51;;;;;;;5.97;3.95;;;;;;;9.28;100.00;100454.73;1821475;78;21030;-77
2021/09/15 00:22:18;;;;;;;10.08;3.77;;;;;;;9.25;100.00;100463.56;1821980;78;21580;-76
2021/09/15 00:24:46;;;;;;;5.70;3.77;;;;;;;9.21;100.00;100460.59;1821669;78;21040;-77
2021/09/15 00:27:14;;;;;;;7.92;3.60;;;;;;;9.18;100.00;100462.00;1821615;78;21103;-79
2021/09/15 00:29:41;;;;;;;7.85;4.08;;;;;;;9.18;100.00;100464.63;1821903;78;21130;-77
2021/09/15 00:32:08;;;;;;;7.75;4.00;;;;;;;9.15;100.00;100469.95;1821745;78;21572;-77
2021/09/15 00:34:34;;;;;;;5.72;3.72;;;;;;;9.12;100.00;100470.03;1821964;78;21578;-76
2021/09/15 00:37:01;;;;;;;9.50;3.92;;;;;;;9.09;100.00;100470.98;1822860;78;21065;-76
2021/09/15 00:39:28;;;;;;;6.67;3.80;;;;;;;9.07;100.00;100465.36;1821011;78;21057;-77
2021/09/15 00:41:54;;;;;;;6.40;3.77;;;;;;;9.05;100.00;100463.22;1813821;79;21311;-77
2021/09/15 00:44:23;;;;;;;8.30;3.75;;;;;;;9.01;100.00;100461.95;1813259;79;21002;-78
2021/09/15 00:46:51;;;;;;;6.67;3.70;;;;;;;9.00;100.00;100466.81;1781555;79;21112;-77
2021/09/15 00:49:18;;;;;;;8.73;4.35;;;;;;;8.96;100.00;100466.47;1812927;79;21084;-77
2021/09/15 00:51:47;;;;;;;7.60;3.60;;;;;;;8.95;100.00;100476.58;1812653;79;21022;-75
2021/09/15 00:54:24;;;;;;;7.37;3.42;;;;;;;8.90;100.00;100470.55;1812962;79;21122;-77
2021/09/15 00:56:52;;;;;;;7.08;3.37;;;;;;;8.86;100.00;100471.55;1783470;79;21088;-78
2021/09/15 00:59:19;;;;;;;9.15;3.47;;;;;;;8.78;100.00;100476.11;1781576;80;21304;-77
2021/09/15 01:01:46;;;;;;;9.80;3.50;;;;;;;8.71;100.00;100474.54;1780596;80;21039;-78
2021/09/15 01:04:15;;;;;;;7.47;3.70;;;;;;;8.64;100.00;100476.90;1780624;80;21042;-77
2021/09/15 01:06:43;;;;;;;8.25;3.27;;;;;;;8.58;100.00;100474.84;1780555;80;21599;-78
2021/09/15 01:09:10;;;;;;;12.73;3.85;;;;;;;8.58;100.00;100473.95;1780959;80;20995;-77
2021/09/15 01:11:38;;;;;;;6.85;3.27;;;;;;;8.57;100.00;100474.86;1780572;80;21055;-77
2021/09/15 01:14:07;;;;;;;7.53;3.60;;;;;;;8.53;100.00;100471.89;1806109;79;21006;-78
2021/09/15 01:16:59;;;;;;;7.40;3.70;;;;;;;8.48;100.00;100473.30;1787011;79;21614;-76
2021/09/15 01:19:46;;;;;;;8.80;3.50;;;;;;;8.41;100.00;100474.34;1812496;79;21041;-77
2021/09/15 01:22:17;;;;;;;8.20;3.67;;;;;;;8.39;100.00;100472.17;1739855;79;21522;-77
2021/09/15 01:24:51;;;;;;;10.20;3.72;;;;;;;8.40;100.00;100475.27;1809843;79;20963;-77
2021/09/15 01:27:24;;;;;;;6.12;3.85;;;;;;;8.35;100.00;100474.45;1812079;79;21064;-78
2021/09/15 01:29:58;;;;;;;10.63;3.60;;;;;;;8.29;100.00;100471.98;1811624;79;20995;-76
2021/09/15 01:32:27;;;;;;;4.80;3.20;;;;;;;8.24;100.00;100474.70;1814973;79;21072;-78
2021/09/15 01:34:55;;;;;;;6.03;3.33;;;;;;;8.22;100.00;100478.27;1813805;79;21007;-77
2021/09/15 01:37:23;;;;;;;9.53;3.55;;;;;;;8.19;100.00;100479.19;1812802;79;21177;-76
2021/09/15 01:39:55;;;;;;;7.35;2.87;;;;;;;8.17;100.00;100469.18;1813896;78;21024;-74
2021/09/15 01:42:23;;;;;;;10.58;3.15;;;;;;;8.14;100.00;100468.80;1818597;78;21643;-78
2021/09/15 01:44:51;;;;;;;8.30;2.98;;;;;;;8.11;100.00;100475.41;1818654;78;21784;-77
2021/09/15 01:47:19;;;;;;;5.92;3.58;;;;;;;8.06;100.00;100475.95;1818556;78;21068;-78
2021/09/15 01:49:46;;;;;;;10.10;3.47;;;;;;;8.02;100.00;100478.67;1818747;78;21563;-78
2021/09/15 01:52:15;;;;;;;7.97;3.17;;;;;;;7.95;100.00;100480.55;1818602;78;21040;-77
2021/09/15 01:54:43;;;;;;;8.85;3.08;;;;;;;7.90;100.00;100482.42;1818171;78;21559;-77
2021/09/15 01:57:10;;;;;;;7.90;3.70;;;;;;;7.84;100.00;100478.59;1786626;80;21758;-78
2021/09/15 01:59:50;;;;;;;5.63;2.97;;;;;;;7.74;100.00;100476.61;1741697;80;21034;-77
2021/09/15 02:02:31;;;;;;;6.80;3.70;;;;;;;7.74;100.00;100476.61;1741924;80;21596;-77
2021/09/15 02:04:59;;;;;;;9.60;3.65;;;;;;;7.69;100.00;100477.16;1786497;80;21077;-77
2021/09/15 02:07:31;;;;;;;9.18;3.30;;;;;;;7.65;100.00;100476.34;1786897;80;21518;-78
2021/09/15 02:10:10;;;;;;;8.70;3.40;;;;;;;7.62;100.00;100479.03;1745755;80;21534;-78
2021/09/15 02:12:39;;;;;;;7.65;3.25;;;;;;;7.59;100.00;100476.45;1786764;80;21046;-77
2021/09/15 02:15:10;;;;;;;6.42;4.08;;;;;;;7.57;100.00;100482.20;1786682;80;21082;-77
2021/09/15 02:17:38;;;;;;;8.63;3.50;;;;;;;7.57;100.00;100486.12;1786427;78;21121;-77
2021/09/15 02:20:09;;;;;;;5.80;2.87;;;;;;;7.52;100.00;100483.59;1786429;80;21081;-78
2021/09/15 02:22:46;;;;;;;6.10;3.42;;;;;;;7.49;100.00;100488.02;1786809;80;21752;-76
2021/09/15 02:25:26;;;;;;;6.92;2.67;;;;;;;7.46;100.00;100489.39;1786144;80;21504;-76
2021/09/15 02:28:07;;;;;;;5.92;3.35;;;;;;;7.46;100.00;100486.77;1786086;80;21038;-77
2021/09/15 02:30:35;;;;;;;5.50;2.80;;;;;;;7.44;100.00;100488.55;1786311;80;21026;-76
2021/09/15 02:33:04;;;;;;;6.15;3.52;;;;;;;7.40;100.00;100488.19;1786450;80;21038;-76
2021/09/15 02:35:35;;;;;;;5.50;2.67;;;;;;;7.37;100.00;100490.42;1786275;80;21512;-77
2021/09/15 02:38:22;;;;;;;10.25;3.55;;;;;;;7.32;100.00;100487.02;1720397;83;21013;-78
2021/09/15 02:41:07;;;;;;;12.65;3.55;;;;;;;7.27;100.00;100491.03;1718462;83;21049;-79
2021/09/15 02:43:35;;;;;;;7.85;3.58;;;;;;;7.24;100.00;100488.45;1747514;80;21034;-78
2021/09/15 02:46:21;;;;;;;12.70;3.30;;;;;;;7.23;100.00;100492.42;1780347;80;21046;-76
2021/09/15 02:48:53;;;;;;;4.97;2.72;;;;;;;7.23;100.00;100493.73;1776101;80;21137;-78
2021/09/15 02:51:22;;;;;;;6.35;2.95;;;;;;;7.22;100.00;100499.39;1781399;80;21043;-78
2021/09/15 02:53:56;;;;;;;12.70;3.58;;;;;;;7.21;100.00;100496.38;1781003;80;21074;-79
2021/09/15 02:56:39;;;;;;;7.17;3.42;;;;;;;7.20;100.00;100495.97;1781595;80;22025;-77
2021/09/15 02:59:17;;;;;;;8.98;2.98;;;;;;;7.16;100.00;100498.21;1781700;80;20999;-78
2021/09/15 03:01:45;;;;;;;5.50;2.85;;;;;;;7.13;100.00;100504.79;1802842;79;21493;-78
2021/09/15 03:04:17;;;;;;;8.48;3.00;;;;;;;7.08;100.00;100506.62;1809987;79;21524;-78
2021/09/15 03:07:04;;;;;;;5.80;2.92;;;;;;;7.04;100.00;100511.48;1809533;79;20978;-78
2021/09/15 03:09:34;;;;;;;4.33;2.70;;;;;;;6.99;100.00;100507.64;1811772;79;21080;-78
2021/09/15 03:12:03;;;;;;;9.00;3.33;;;;;;;6.98;100.00;100513.78;1739348;82;21086;-77
2021/09/15 03:14:32;;;;;;;4.87;3.05;;;;;;;6.93;100.00;100513.00;1739911;82;21082;-77
2021/09/15 03:17:00;;;;;;;7.12;3.10;;;;;;;6.90;100.00;100511.30;1737998;82;21585;-79
2021/09/15 03:19:27;;;;;;;13.25;3.40;;;;;;;6.90;100.00;100519.15;1740248;82;21136;-77
2021/09/15 03:21:53;;;;;;;15.80;3.55;;;;;;;6.87;100.00;100516.56;1765983;81;21026;-78
2021/09/15 03:24:20;;;;;;;10.58;3.27;;;;;;;6.86;100.00;100517.46;1766165;81;21101;-77
2021/09/15 03:26:50;;;;;;;10.90;3.30;;;;;;;6.87;100.00;100523.10;1765796;81;21139;-78
2021/09/15 03:29:18;;;;;;;6.75;3.05;;;;;;;6.86;100.00;100516.15;1765948;81;21089;-78
2021/09/15 03:31:44;;;;;;;4.75;2.65;;;;;;;6.87;100.00;100519.17;1765966;81;21022;-78
2021/09/15 03:34:11;;;;;;;7.08;2.92;;;;;;;6.87;100.00;100523.10;1766102;81;21552;-77
2021/09/15 03:36:39;;;;;;;9.88;3.00;;;;;;;6.88;100.00;100513.52;1744297;81;21067;-78
2021/09/15 03:39:06;;;;;;;4.55;2.87;;;;;;;6.89;100.00;100525.26;1740129;82;21158;-79
2021/09/15 03:41:33;;;;;;;7.95;2.87;;;;;;;6.90;100.00;100516.53;1778241;80;21490;-78
2021/09/15 03:43:59;;;;;;;4.55;3.00;;;;;;;6.92;100.00;100525.23;1753180;81;21291;-78
2021/09/15 03:46:28;;;;;;;9.25;3.35;;;;;;;6.92;100.00;100521.72;1780074;80;21032;-78
2021/09/15 03:48:55;;;;;;;12.00;3.45;;;;;;;6.96;100.00;100526.48;1752889;81;21025;-78
2021/09/15 03:51:22;;;;;;;10.03;3.02;;;;;;;6.98;100.00;100528.63;1783712;79;21525;-78
2021/09/15 03:53:48;;;;;;;6.00;3.47;;;;;;;6.99;100.00;100525.11;1755957;81;21037;-77
2021/09/15 03:56:15;;;;;;;3.95;2.62;;;;;;;7.04;100.00;100529.82;1781534;80;21021;-78
2021/09/15 03:58:42;;;;;;;12.05;3.60;;;;;;;7.07;100.00;100532.41;1752597;81;21033;-79
2021/09/15 04:01:10;;;;;;;14.05;4.95;;;;;;;7.11;100.00;100525.79;1780097;80;21084;-79
2021/09/15 04:03:40;;;;;;;17.17;6.72;;;;;;;7.16;100.00;100530.95;1752845;81;21122;-78
2021/09/15 04:06:07;;;;;;;12.55;6.00;;;;;;;7.20;100.00;100526.09;1780197;80;21018;-78
2021/09/15 04:08:34;;;;;;;8.33;4.50;;;;;;;7.28;100.00;100523.33;1752870;81;21089;-79
2021/09/15 04:11:02;;;;;;;9.98;3.67;;;;;;;7.44;100.00;100529.17;1780281;80;21047;-78
2021/09/15 04:13:30;;;;;;;5.95;3.10;;;;;;;7.56;100.00;100525.01;1752978;81;21038;-79
2021/09/15 04:15:58;;;;;;;6.47;3.02;;;;;;;7.64;100.00;100528.37;1780184;80;20990;-79
2021/09/15 04:18:27;;;;;;;7.03;3.27;;;;;;;7.70;100.00;100528.68;1752820;81;21544;-78
2021/09/15 04:20:55;;;;;;;6.30;2.80;;;;;;;7.79;100.00;100527.20;1780213;80;21044;-79
2021/09/15 04:23:31;;;;;;;10.03;3.35;;;;;;;7.92;100.00;100527.38;1752874;81;20999;-78
2021/09/15 04:31:25;;;;;;;6.28;2.87;;;;;;;8.71;100.00;100534.94;1781735;80;21097;-79
2021/09/15 04:33:55;;;;;;;6.87;2.77;;;;;;;8.98;100.00;100536.91;1751857;81;21013;-77
2021/09/15 04:36:23;;;;;;;8.85;2.33;;;;;;;9.31;100.00;100530.41;1727360;80;21509;-80
2021/09/15 04:38:50;;;;;;;7.17;2.72;;;;;;;9.61;100.00;100535.31;1753195;81;21057;-78
2021/09/15 04:41:18;;;;;;;7.75;2.98;;;;;;;9.88;98.87;100536.34;1780223;80;21131;-78
2021/09/15 04:43:46;;;;;;;5.05;2.58;;;;;;;10.19;98.28;100535.49;1753473;81;21100;-79
2021/09/15 04:46:13;;;;;;;10.23;2.85;;;;;;;10.49;96.37;100540.80;1780911;80;21121;-79
2021/09/15 04:48:40;;;;;;;13.48;2.35;;;;;;;10.76;94.74;100540.84;1753646;81;21049;-79
2021/09/15 04:51:15;;;;;;;12.95;2.67;;;;;;;11.02;93.73;100540.00;1783233;80;21104;-78
2021/09/15 04:53:44;;;;;;;25.10;3.58;;;;;;;11.35;92.44;100542.00;1749076;82;21284;-78
2021/09/15 04:56:11;;;;;;;13.22;2.90;;;;;;;11.69;89.68;100540.85;1736886;81;20994;-80
2021/09/15 04:58:38;;;;;;;10.98;2.70;;;;;;;11.81;88.51;100548.33;1726744;81;21037;-78
2021/09/15 05:01:08;;;;;;;10.90;3.67;;;;;;;12.07;86.50;100547.88;1727357;82;21076;-78
2021/09/15 05:03:35;;;;;;;17.00;2.90;;;;;;;12.36;84.13;100550.30;1726930;83;21088;-77
2021/09/15 05:06:02;;;;;;;53.63;4.53;;;;;;;12.54;82.86;100551.85;1726451;83;21073;-78
2021/09/15 05:08:30;;;;;;;111.40;6.92;;;;;;;12.77;81.96;100550.49;1726405;83;21057;-80
2021/09/15 05:10:58;;;;;;;62.17;4.60;;;;;;;13.13;80.74;100552.56;1726555;83;20990;-79
2021/09/15 05:13:25;;;;;;;66.62;4.60;;;;;;;13.49;79.08;100546.70;1752927;82;20978;-79
2021/09/15 05:15:52;;;;;;;32.85;3.67;;;;;;;13.98;77.54;100543.24;1750344;80;22167;-79
2021/09/15 05:18:18;;;;;;;21.60;3.15;;;;;;;14.59;76.25;100550.70;1749114;81;21527;-80
2021/09/15 05:20:46;;;;;;;13.08;2.62;;;;;;;15.16;72.73;100554.12;1749407;82;21041;-78
2021/09/15 05:23:13;;;;;;;8.70;3.15;;;;;;;15.79;71.58;100555.42;1752497;82;21029;-81
2021/09/15 05:25:44;;;;;;;15.28;3.25;;;;;;;16.47;68.73;100558.87;1753108;82;21684;-79
2021/09/15 05:28:12;;;;;;;12.43;2.83;;;;;;;17.12;65.68;100560.61;1749796;82;21004;-81
2021/09/15 05:30:39;;;;;;;12.53;2.72;;;;;;;17.68;63.15;100556.41;1749708;82;21188;-79
2021/09/15 05:33:08;;;;;;;8.83;2.80;;;;;;;18.18;58.64;100560.50;1748984;82;21060;-80
2021/09/15 05:35:34;;;;;;;15.20;3.10;;;;;;;18.51;57.26;100563.34;1749537;82;20994;-80
2021/09/15 05:38:04;;;;;;;12.90;3.02;;;;;;;18.91;55.01;100566.17;1749087;81;21135;-81
2021/09/15 05:40:30;;;;;;;7.55;2.90;;;;;;;19.21;53.12;100563.75;1749582;82;21136;-80
2021/09/15 05:42:58;;;;;;;11.38;3.00;;;;;;;19.61;52.46;100564.62;1744546;82;21545;-77
2021/09/15 05:45:25;;;;;;;9.38;2.72;;;;;;;20.04;50.52;100568.88;1744235;82;21078;-78
2021/09/15 05:47:51;;;;;;;7.00;2.45;;;;;;;20.33;48.35;100565.48;1744849;82;21112;-79
2021/09/15 05:50:18;;;;;;;6.75;2.80;;;;;;;20.74;47.65;100566.55;1744731;82;21054;-78
2021/09/15 05:55:38;;;;;;;6.83;2.50;;;;;;;21.67;42.34;100570.42;1792093;79;22435;-79
2021/09/15 05:58:04;;;;;;;13.10;2.75;;;;;;;21.67;43.00;100567.75;1744124;81;21090;-78
2021/09/15 06:00:32;;;;;;;7.08;2.62;;;;;;;22.02;40.12;100570.41;1727742;83;21937;-78
2021/09/15 06:03:03;;;;;;;17.55;3.08;;;;;;;22.43;39.83;100569.46;1727739;83;21004;-78
2021/09/15 06:05:39;;;;;;;9.18;2.33;;;;;;;22.86;38.07;100574.06;1726610;83;21108;-79
2021/09/15 06:08:06;;;;;;;5.58;2.30;;;;;;;23.04;35.49;100573.93;1727381;83;21603;-78
2021/09/15 06:10:34;;;;;;;8.33;2.30;;;;;;;23.21;37.06;100573.40;1728455;83;21048;-79
2021/09/15 06:13:02;;;;;;;6.55;3.00;;;;;;;23.77;35.06;100574.16;1729287;83;21005;-77
2021/09/15 06:15:29;;;;;;;8.48;2.33;;;;;;;24.36;33.29;100570.77;1728346;83;21048;-79
2021/09/15 06:17:58;;;;;;;7.30;2.40;;;;;;;24.80;32.79;100572.75;1726633;83;21001;-79
2021/09/15 06:20:27;;;;;;;9.45;2.10;;;;;;;25.09;31.26;100575.48;1725655;83;21075;-78
2021/09/15 06:22:58;;;;;;;12.75;2.17;;;;;;;25.38;30.73;100572.51;1724267;83;21469;-78
2021/09/15 06:25:27;;;;;;;7.90;1.80;;;;;;;25.80;29.80;100575.72;1723140;83;21096;-79
2021/09/15 06:27:55;;;;;;;5.72;2.17;;;;;;;26.12;28.97;100575.91;1725503;83;21069;-77
2021/09/15 06:30:22;;;;;;;9.38;2.30;;;;;;;26.37;29.16;100577.94;1726166;83;21544;-77
2021/09/15 06:32:49;;;;;;;10.25;2.22;;;;;;;27.02;27.89;100578.41;1725687;83;21072;-76
2021/09/15 06:35:17;;;;;;;5.22;2.15;;;;;;;27.02;27.89;100578.41;1725967;83;21108;-77
2021/09/15 06:37:45;;;;;;;5.95;1.80;;;;;;;27.05;27.33;100579.95;1725829;83;21104;-78
2021/09/15 06:40:12;;;;;;;4.95;1.80;;;;;;;27.19;27.01;100583.47;1699333;83;21096;-79
2021/09/15 06:42:40;;;;;;;6.08;2.33;;;;;;;27.34;26.56;100580.62;1725725;83;21041;-78
2021/09/15 06:45:09;;;;;;;4.47;1.62;;;;;;;27.53;26.29;100575.54;1725949;83;21678;-78
2021/09/15 06:47:41;;;;;;;4.85;2.15;;;;;;;27.59;25.17;100580.34;1725529;83;21056;-78
2021/09/15 06:50:10;;;;;;;3.10;1.70;;;;;;;27.56;25.81;100578.44;1725703;83;21530;-78
2021/09/15 06:52:38;;;;;;;4.47;1.62;;;;;;;27.67;22.93;100580.89;1725679;83;21136;-76
2021/09/15 06:55:06;;;;;;;6.70;1.72;;;;;;;27.77;23.63;100585.73;1723238;82;21152;-77
2021/09/15 06:57:35;;;;;;;5.28;1.90;;;;;;;28.02;23.37;100576.44;1726209;81;21084;-79
2021/09/15 07:00:06;;;;;;;3.72;1.87;;;;;;;28.23;21.98;100575.58;1726424;82;21034;-77
2021/09/15 07:02:32;;;;;;;5.42;1.65;;;;;;;28.19;23.46;100574.70;1726632;82;22166;-78
2021/09/15 07:04:59;;;;;;;3.20;1.80;;;;;;;28.47;21.82;100576.73;1726528;83;21010;-79
2021/09/15 07:07:28;;;;;;;7.42;1.80;;;;;;;28.47;21.93;100576.73;1726087;82;21033;-79
2021/09/15 07:09:55;;;;;;;3.30;1.40;;;;;;;28.31;22.62;100573.41;1726013;83;21037;-78
2021/09/15 07:12:23;;;;;;;6.53;1.57;;;;;;;28.36;20.87;100580.53;1726009;82;21021;-77
2021/09/15 07:14:50;;;;;;;4.40;1.47;;;;;;;28.55;20.83;100573.20;1726062;83;21205;-79
2021/09/15 07:17:18;;;;;;;10.70;2.45;;;;;;;28.65;20.88;100574.78;1725747;81;22259;-77
2021/09/15 07:19:44;;;;;;;7.10;1.72;;;;;;;28.87;21.15;100583.31;1725951;82;21719;-80
2021/09/15 07:22:12;;;;;;;2.70;1.55;;;;;;;29.04;21.14;100576.93;1725901;82;21524;-78
2021/09/15 07:24:41;;;;;;;4.58;1.65;;;;;;;29.07;19.50;100583.39;1726019;83;21057;-78
2021/09/15 07:27:08;;;;;;;3.02;1.55;;;;;;;29.21;20.63;100579.19;1726062;83;21090;-78
2021/09/15 07:29:34;;;;;;;4.25;1.70;;;;;;;29.44;20.64;100576.66;1725981;83;21527;-79
2021/09/15 07:32:01;;;;;;;5.72;1.80;;;;;;;29.75;19.32;100577.88;1726100;82;21718;-79
2021/09/15 07:34:27;;;;;;;7.85;1.90;;;;;;;29.94;20.05;100586.20;1726209;83;22132;-77
2021/09/15 07:36:56;;;;;;;6.05;1.80;;;;;;;30.01;19.68;100570.39;1725981;83;21088;-77
2021/09/15 07:39:22;;;;;;;5.47;1.75;;;;;;;30.30;18.92;100572.56;1726156;83;22097;-78
2021/09/15 07:41:48;;;;;;;8.45;2.17;;;;;;;30.08;19.66;100567.83;1726091;82;21061;-79
2021/09/15 07:44:15;;;;;;;7.47;1.80;;;;;;;30.30;19.44;100571.20;1726020;83;21074;-78
2021/09/15 07:46:41;;;;;;;4.85;1.40;;;;;;;30.78;19.55;100570.31;1726345;82;21087;-77
2021/09/15 07:49:08;;;;;;;2.80;1.30;;;;;;;31.04;18.75;100574.12;1725959;83;21655;-79
2021/09/15 07:51:36;;;;;;;3.02;1.70;;;;;;;31.14;18.94;100570.64;1725961;82;21122;-80
2021/09/15 07:54:03;;;;;;;4.45;1.80;;;;;;;31.27;18.39;100570.05;1725736;82;21018;-78
2021/09/15 07:56:30;;;;;;;4.45;1.85;;;;;;;31.28;17.82;100569.02;1725960;83;21076;-79
2021/09/15 07:58:56;;;;;;;5.58;1.82;;;;;;;31.19;18.24;100563.30;1725850;81;21022;-77
2021/09/15 08:01:25;;;;;;;4.72;1.60;;;;;;;30.70;18.96;100563.89;1725881;83;21597;-79
2021/09/15 08:03:52;;;;;;;4.60;1.65;;;;;;;30.33;18.80;100562.37;1725753;83;21200;-77
2021/09/15 08:06:20;;;;;;;2.92;1.57;;;;;;;30.08;19.51;100558.33;1725823;82;21389;-77
2021/09/15 08:08:47;;;;;;;3.42;1.67;;;;;;;30.24;19.59;100562.87;1725770;83;21604;-79
2021/09/15 08:11:15;;;;;;;10.13;1.87;;;;;;;30.50;19.54;100566.70;1725914;83;21095;-78
2021/09/15 08:13:43;;;;;;;4.47;1.70;;;;;;;30.56;19.22;100560.58;1725911;82;21072;-80
2021/09/15 08:16:10;;;;;;;5.60;1.50;;;;;;;30.29;19.53;100565.41;1726080;81;21593;-78
2021/09/15 08:18:37;;;;;;;4.40;1.77;;;;;;;30.38;20.19;100570.84;1726412;83;21073;-77
2021/09/15 08:21:05;;;;;;;5.40;1.85;;;;;;;30.73;19.11;100567.61;1726520;83;21129;-79
2021/09/15 08:23:32;;;;;;;3.60;1.50;;;;;;;30.82;19.58;100563.50;1726275;83;21048;-78
2021/09/15 08:25:58;;;;;;;7.90;1.72;;;;;;;30.59;20.05;100565.64;1726052;83;21374;-78
2021/09/15 08:28:25;;;;;;;7.55;1.75;;;;;;;30.63;20.13;100566.99;1726282;82;21095;-76
2021/09/15 08:30:52;;;;;;;5.22;1.85;;;;;;;30.90;20.25;100559.42;1725847;82;21560;-78
2021/09/15 08:33:18;;;;;;;2.70;1.60;;;;;;;30.68;19.73;100550.98;1726243;82;21096;-77
2021/09/15 08:35:45;;;;;;;4.45;1.57;;;;;;;30.15;20.25;100557.97;1726315;82;21045;-79
2021/09/15 08:38:12;;;;;;;3.98;1.72;;;;;;;30.12;21.08;100565.11;1729845;83;20906;-78
2021/09/15 08:40:39;;;;;;;4.35;1.57;;;;;;;30.26;20.24;100563.06;1728939;82;21584;-78
2021/09/15 08:43:06;;;;;;;4.45;1.80;;;;;;;30.40;20.94;100562.00;1727063;82;21058;-78
2021/09/15 08:45:33;;;;;;;5.37;1.90;;;;;;;30.49;20.33;100559.59;1726630;82;21519;-78
2021/09/15 08:48:01;;;;;;;2.85;1.60;;;;;;;30.36;20.45;100555.22;1726536;83;21262;-79
2021/09/15 08:50:28;;;;;;;5.58;1.95;;;;;;;30.38;20.96;100551.30;1726605;83;21053;-78
2021/09/15 08:52:54;;;;;;;5.55;1.75;;;;;;;30.56;20.71;100549.70;1728223;83;21110;-76
2021/09/15 08:55:21;;;;;;;4.95;1.87;;;;;;;30.75;20.10;100542.97;1727473;82;21010;-77
2021/09/15 08:57:49;;;;;;;20.30;2.83;;;;;;;30.70;20.37;100546.23;1726086;81;21077;-78
2021/09/15 09:00:16;;;;;;;6.67;1.77;;;;;;;30.73;20.23;100537.70;1726623;83;21577;-78
2021/09/15 09:02:47;;;;;;;4.45;1.60;;;;;;;30.77;20.49;100540.09;1726574;83;20990;-77
2021/09/15 09:05:15;;;;;;;6.58;1.62;;;;;;;30.83;20.04;100543.42;1710105;83;21124;-78
2021/09/15 09:07:42;;;;;;;3.85;1.35;;;;;;;30.26;19.71;100538.61;1726109;82;21025;-78
2021/09/15 09:10:12;;;;;;;1.77;1.32;;;;;;;29.75;20.98;100531.25;1726152;82;21057;-79
2021/09/15 09:12:44;;;;;;;4.92;1.45;;;;;;;29.85;19.85;100532.41;1725989;83;21097;-78
2021/09/15 09:15:25;;;;;;;19.42;2.10;;;;;;;29.59;18.84;100533.95;1727522;80;21597;-78
2021/09/15 09:18:00;;;;;;;6.60;1.45;;;;;;;29.31;21.08;100535.66;1722684;83;22017;-79
2021/09/15 09:20:32;;;;;;;4.28;1.35;;;;;;;29.30;20.79;100535.30;1727132;82;21065;-80
2021/09/15 09:23:14;;;;;;;9.30;1.30;;;;;;;29.34;20.84;100542.09;1726659;82;21022;-77
2021/09/15 09:25:57;;;;;;;3.45;1.37;;;;;;;29.41;20.70;100536.32;1726219;82;21089;-78
2021/09/15 09:28:30;;;;;;;5.10;1.32;;;;;;;29.51;19.76;100529.88;1725972;82;21283;-79
2021/09/15 09:31:00;;;;;;;5.72;1.60;;;;;;;29.59;20.66;100527.17;1726070;83;21076;-78
2021/09/15 09:33:27;;;;;;;4.20;1.60;;;;;;;29.42;20.73;100524.95;1726046;82;21124;-77
2021/09/15 09:36:01;;;;;;;2.80;1.20;;;;;;;29.26;20.69;100527.15;1726227;82;21520;-78
2021/09/15 09:38:45;;;;;;;9.55;1.85;;;;;;;29.26;21.06;100523.08;1725910;83;21120;-78
2021/09/15 09:41:17;;;;;;;2.85;1.10;;;;;;;29.28;19.24;100525.13;1726495;82;21010;-76
2021/09/15 09:43:49;;;;;;;4.42;1.40;;;;;;;29.32;19.29;100518.34;1725945;82;21603;-78
2021/09/15 09:46:21;;;;;;;3.42;1.55;;;;;;;29.36;19.66;100521.06;1709876;83;21580;-78
2021/09/15 09:48:56;;;;;;;3.58;1.20;;;;;;;29.24;19.85;100522.40;1710393;83;21056;-79
2021/09/15 09:51:37;;;;;;;6.65;1.35;;;;;;;28.98;19.32;100530.14;1726422;82;21037;-81
2021/09/15 09:54:24;;;;;;;4.90;1.62;;;;;;;29.01;19.20;100520.34;1726017;83;21022;-77
2021/09/15 09:56:55;;;;;;;;;;;;;;;29.00;19.49;100514.56;1710438;82;21105;-78
2021/09/15 09:59:25;;;;;;;4.25;1.32;;;;;;;28.81;19.54;100518.94;1707237;83;20236;-78
2021/09/15 10:01:59;;;;;;;5.25;1.37;;;;;;;28.57;20.23;100519.19;1707425;83;21279;-78
2021/09/15 10:04:28;;;;;;;4.33;1.42;;;;;;;28.65;19.32;100521.94;1707331;84;21160;-78
2021/09/15 10:06:55;;;;;;;5.25;2.08;;;;;;;28.51;19.89;100517.16;1707445;84;21093;-79
2021/09/15 10:09:23;;;;;;;4.80;1.90;;;;;;;28.38;19.99;100505.90;1707586;84;21122;-79
2021/09/15 10:11:51;;;;;;;6.03;1.80;;;;;;;28.37;20.31;100517.76;1708070;84;21071;-78
2021/09/15 10:14:18;;;;;;;4.67;1.57;;;;;;;28.43;21.11;100506.25;1708213;84;21172;-78
2021/09/15 10:16:51;;;;;;;2.25;1.27;;;;;;;28.47;20.62;100510.36;1708087;84;21041;-76
2021/09/15 10:19:31;;;;;;;4.60;1.80;;;;;;;28.72;19.68;100511.80;1707128;83;21085;-79
2021/09/15 10:22:01;;;;;;;8.25;1.60;;;;;;;28.78;19.41;100501.63;1707458;84;21121;-78
2021/09/15 10:24:58;;;;;;;6.47;1.80;;;;;;;28.55;20.60;100499.56;1703527;83;21049;-76
2021/09/15 10:27:28;;;;;;;3.87;1.60;;;;;;;28.39;20.78;100506.22;1684382;84;21076;-77
2021/09/15 10:30:13;;;;;;;3.10;1.57;;;;;;;28.16;21.06;100504.60;1684875;85;21114;-78
2021/09/15 10:32:50;;;;;;;4.87;2.22;;;;;;;28.39;20.12;100494.03;1684742;84;21081;-76
2021/09/15 10:35:45;;;;;;;3.25;1.37;;;;;;;28.70;19.92;100501.63;1684887;84;21167;-78
2021/09/15 10:38:14;;;;;;;5.90;1.85;;;;;;;28.85;18.83;100499.98;1684871;84;21505;-80
2021/09/15 10:40:42;;;;;;;7.40;1.75;;;;;;;28.99;19.00;100495.25;1684903;84;21086;-77
2021/09/15 10:43:42;;;;;;;2.37;1.35;;;;;;;29.05;19.12;100485.07;1684884;84;21038;-77
2021/09/15 10:46:21;;;;;;;5.17;1.67;;;;;;;29.04;19.61;100488.81;1685581;83;21057;-78
2021/09/15 10:49:25;;;;;;;3.80;1.32;;;;;;;29.14;19.21;100479.70;1685026;84;21906;-79
2021/09/15 10:52:13;;;;;;;4.80;1.77;;;;;;;28.99;20.01;100481.70;1685213;84;21066;-78
2021/09/15 10:54:51;;;;;;;4.97;1.90;;;;;;;28.89;20.96;100485.05;1685065;84;21603;-77
2021/09/15 10:57:20;;;;;;;3.60;1.75;;;;;;;28.68;20.65;100476.56;1697892;83;21132;-79
2021/09/15 11:00:10;;;;;;;4.62;1.70;;;;;;;28.68;20.45;100473.85;1699048;84;21041;-78
2021/09/15 11:02:39;;;;;;;5.55;1.47;;;;;;;28.37;20.72;100471.72;1698207;84;21057;-77
2021/09/15 11:05:30;;;;;;;3.58;1.37;;;;;;;27.99;20.24;100469.34;1700102;84;21087;-77
2021/09/15 11:07:57;;;;;;;4.35;1.42;;;;;;;27.93;20.44;100465.06;1698699;84;21377;-79
2021/09/15 11:10:36;;;;;;;5.12;1.95;;;;;;;27.99;21.20;100465.78;1697415;84;21069;-78
2021/09/15 11:13:18;;;;;;;6.90;1.37;;;;;;;28.13;20.09;100461.62;1697038;84;21056;-78
2021/09/15 11:15:48;;;;;;;5.40;1.30;;;;;;;27.92;20.65;100456.11;1698566;84;21109;-78
2021/09/15 11:18:27;;;;;;;5.30;1.60;;;;;;;27.91;21.30;100459.00;1696924;84;21093;-79
2021/09/15 11:21:03;;;;;;;4.65;1.50;;;;;;;28.03;20.60;100450.41;1697361;84;21057;-78
2021/09/15 11:23:30;;;;;;;6.80;1.50;;;;;;;28.11;21.31;100449.59;1697012;84;21050;-78
2021/09/15 11:25:58;;;;;;;2.85;1.20;;;;;;;28.07;21.33;100448.72;1697314;84;21029;-80
2021/09/15 11:28:26;;;;;;;3.72;1.20;;;;;;;27.86;20.15;100447.30;1696851;84;21137;-78
2021/09/15 11:31:01;;;;;;;3.12;1.27;;;;;;;27.71;21.21;100447.00;1697458;84;21579;-78
2021/09/15 11:33:38;;;;;;;6.47;1.35;;;;;;;27.56;20.29;100445.41;1697240;84;21068;-81
2021/09/15 11:36:09;;;;;;;5.95;1.37;;;;;;;27.26;20.59;100437.22;1697369;84;21101;-78
2021/09/15 11:38:41;;;;;;;2.87;1.52;;;;;;;26.94;21.64;100441.83;1696971;84;21670;-79
2021/09/15 11:41:13;;;;;;;5.00;1.60;;;;;;;26.76;21.58;100437.80;1698203;84;21057;-79
2021/09/15 11:43:43;;;;;;;8.93;5.05;;;;;;;26.78;21.37;100426.34;1697685;84;21053;-79
2021/09/15 11:46:11;;;;;;;2.40;2.10;;;;;;;26.76;20.94;100429.70;1697325;84;21137;-78